Time;durP1;ratioP1;P1;durP2;ratioP2;P2;SDS_P1;SDS_P2;PMS_P1;PMS_P2;Temp;Humidity;BMP_temperature;BMP_pressure;BME280_temperature;BME280_humidity;BME280_pressure;Samples;Min_cycle;Max_cycle;Signal;HPM_P1;HPM_P2
2022/10/01 00:02:19;;;;;;;8.00;5.80;;;;;;;8.40;100.00;100028.53;7396114;19;20395;-58
2022/10/01 00:04:49;;;;;;;19.03;11.00;;;;;;;8.45;100.00;100031.25;7400496;19;20431;-58
2022/10/01 00:07:19;;;;;;;11.20;6.97;;;;;;;8.34;100.00;100038.56;7396726;19;21001;-59
2022/10/01 00:09:48;;;;;;;14.80;8.20;;;;;;;8.61;100.00;100022.50;7394928;19;20432;-56
2022/10/01 00:12:17;;;;;;;5.87;5.00;;;;;;;8.37;100.00;100031.84;7397018;19;20387;-58
2022/10/01 00:14:49;;;;;;;7.70;5.30;;;;;;;8.36;100.00;100032.66;7393930;19;20420;-55
2022/10/01 00:17:19;;;;;;;8.80;4.97;;;;;;;8.28;100.00;100039.22;7396296;19;20379;-60
2022/10/01 00:19:48;;;;;;;8.30;5.37;;;;;;;8.27;100.00;100022.03;7393007;19;20472;-59
2022/10/01 00:22:18;;;;;;;8.27;5.57;;;;;;;8.20;100.00;100027.75;7396133;19;20419;-55
2022/10/01 00:24:48;;;;;;;7.90;5.37;;;;;;;8.22;100.00;100019.25;7393522;19;20414;-59
2022/10/01 00:27:17;;;;;;;6.90;5.10;;;;;;;8.30;100.00;100021.28;7393612;19;20387;-55
2022/10/01 00:29:49;;;;;;;9.20;6.83;;;;;;;8.28;100.00;100013.50;7392329;19;20810;-59
2022/10/01 00:32:19;;;;;;;9.97;4.77;;;;;;;8.22;100.00;100014.13;7395679;19;20383;-54
2022/10/01 00:34:48;;;;;;;6.90;4.67;;;;;;;8.22;100.00;100008.13;7395900;19;20407;-58
2022/10/01 00:37:20;;;;;;;9.17;5.10;;;;;;;8.21;100.00;100007.22;7396812;19;20380;-53
2022/10/01 00:39:49;;;;;;;5.73;4.40;;;;;;;8.19;100.00;100003.75;7395127;19;20438;-57
2022/10/01 00:42:20;;;;;;;6.40;4.93;;;;;;;8.21;100.00;100001.25;7396431;19;20395;-58
2022/10/01 00:44:53;;;;;;;7.40;4.77;;;;;;;8.24;100.00;99996.19;7398024;19;20435;-59
2022/10/01 00:47:27;;;;;;;8.30;5.37;;;;;;;8.24;100.00;99989.38;7391718;19;20383;-57
2022/10/01 00:49:59;;;;;;;6.83;4.83;;;;;;;8.30;100.00;99991.31;7394573;19;20415;-60
2022/10/01 00:52:32;;;;;;;7.63;4.60;;;;;;;8.27;100.00;99987.75;7391571;19;20728;-60
2022/10/01 00:55:06;;;;;;;7.83;4.77;;;;;;;8.26;100.00;99983.41;7395921;19;20394;-54
2022/10/01 00:57:36;;;;;;;8.43;4.50;;;;;;;8.21;100.00;99975.53;7393514;19;20384;-57
2022/10/01 01:00:11;;;;;;;6.17;4.60;;;;;;;8.18;100.00;99976.28;7394550;19;20444;-61
2022/10/01 01:02:41;;;;;;;13.50;5.00;;;;;;;8.23;100.00;99969.66;7393921;19;20386;-55
2022/10/01 01:05:12;;;;;;;9.40;4.80;;;;;;;8.21;100.00;99967.84;7396046;19;20387;-56
2022/10/01 01:07:44;;;;;;;7.77;4.70;;;;;;;8.17;100.00;99973.66;7391944;19;20942;-58
2022/10/01 01:10:15;;;;;;;6.63;4.80;;;;;;;8.22;100.00;99962.72;7394700;19;20414;-56
2022/10/01 01:12:54;;;;;;;7.40;4.57;;;;;;;8.18;100.00;99963.44;7393631;19;20768;-56
2022/10/01 01:15:31;;;;;;;12.13;4.80;;;;;;;8.20;100.00;99959.22;7395884;19;20371;-57
2022/10/01 01:18:08;;;;;;;14.90;4.67;;;;;;;8.24;100.00;99950.84;7393119;19;20406;-52
2022/10/01 01:20:54;;;;;;;8.80;4.30;;;;;;;8.16;100.00;99949.63;7395479;19;20411;-53
2022/10/01 01:23:43;;;;;;;8.27;5.20;;;;;;;8.17;100.00;99941.16;7393732;19;20418;-60
2022/10/01 01:26:21;;;;;;;6.40;4.70;;;;;;;8.29;100.00;99942.41;7401649;19;20399;-53
2022/10/01 01:28:56;;;;;;;10.10;5.10;;;;;;;8.23;100.00;99932.78;7395020;19;20782;-56
2022/10/01 01:31:32;;;;;;;7.00;4.60;;;;;;;8.27;100.00;99931.19;7395048;19;20435;-51
2022/10/01 01:34:02;;;;;;;7.40;4.90;;;;;;;8.31;100.00;99927.94;7395083;19;20422;-57
2022/10/01 01:36:34;;;;;;;5.80;4.27;;;;;;;8.33;100.00;99926.28;7398081;19;20748;-55
2022/10/01 01:39:06;;;;;;;7.03;4.20;;;;;;;8.28;100.00;99925.22;7395356;19;20430;-59
2022/10/01 01:41:40;;;;;;;6.60;4.47;;;;;;;8.31;100.00;99927.94;7395140;19;20443;-55
2022/10/01 01:44:16;;;;;;;6.93;4.37;;;;;;;8.29;100.00;99932.13;7394779;19;20418;-59
2022/10/01 01:46:48;;;;;;;8.47;4.30;;;;;;;8.29;100.00;99921.84;7396759;19;20399;-54
2022/10/01 01:49:19;;;;;;;7.23;4.17;;;;;;;8.32;100.00;99924.53;7393225;19;20438;-57
2022/10/01 01:51:54;;;;;;;8.83;4.97;;;;;;;8.41;100.00;99921.44;7397400;19;20759;-56
2022/10/01 01:54:24;;;;;;;5.97;3.80;;;;;;;8.44;100.00;99921.53;7392685;19;20427;-56
2022/10/01 01:56:54;;;;;;;8.00;3.63;;;;;;;8.50;100.00;99911.47;7397416;19;20407;-57
2022/10/01 01:59:26;;;;;;;6.23;4.20;;;;;;;8.64;100.00;99896.59;7396318;19;20419;-59
2022/10/01 02:01:57;;;;;;;5.90;4.30;;;;;;;8.60;100.00;99899.88;7397214;19;20388;-57
2022/10/01 02:04:29;;;;;;;4.43;3.50;;;;;;;8.62;100.00;99893.09;7393704;19;20487;-53
2022/10/01 02:07:34;;;;;;;8.67;4.53;;;;;;;8.72;100.00;99891.75;7396025;19;20387;-53
2022/10/01 02:10:18;;;;;;;8.07;4.20;;;;;;;8.81;100.00;99893.75;7393339;19;20419;-59
2022/10/01 02:13:00;;;;;;;7.63;3.63;;;;;;;8.86;100.00;99895.66;7393627;19;20407;-56
2022/10/01 02:15:37;;;;;;;8.83;4.30;;;;;;;8.92;100.00;99905.28;7400614;19;20392;-53
2022/10/01 02:18:11;;;;;;;6.83;3.80;;;;;;;8.95;100.00;99904.50;7393514;19;20458;-56
2022/10/01 02:20:44;;;;;;;6.50;3.57;;;;;;;8.98;100.00;99907.22;7394378;19;20414;-57
2022/10/01 02:23:17;;;;;;;8.67;4.00;;;;;;;8.97;100.00;99914.03;7392664;19;20428;-49
2022/10/01 02:25:50;;;;;;;5.90;3.77;;;;;;;9.02;100.00;99919.34;7395087;19;20391;-58
2022/10/01 02:28:22;;;;;;;5.60;3.80;;;;;;;9.01;100.00;99909.88;7391557;19;20435;-59
2022/10/01 02:30:57;;;;;;;9.07;4.10;;;;;;;9.08;100.00;99919.53;7394222;19;20427;-52
2022/10/01 02:33:29;;;;;;;6.23;3.50;;;;;;;9.02;100.00;99911.63;7392969;19;20421;-56
2022/10/01 02:36:00;;;;;;;8.00;4.30;;;;;;;9.01;100.00;99908.19;7395849;19;20399;-56
2022/10/01 02:38:30;;;;;;;8.47;3.60;;;;;;;8.95;100.00;99899.38;7393043;19;20415;-55
2022/10/01 02:41:03;;;;;;;9.70;5.77;;;;;;;8.93;100.00;99901.03;7393921;19;20963;-58
2022/10/01 02:43:37;;;;;;;8.83;4.60;;;;;;;8.98;100.00;99892.63;7392589;19;20415;-50
2022/10/01 02:46:20;;;;;;;5.67;3.50;;;;;;;8.98;100.00;99902.91;7395411;19;20383;-59
2022/10/01 02:48:50;;;;;;;13.30;3.23;;;;;;;8.97;100.00;99893.44;7392034;19;20419;-49
2022/10/01 02:51:27;;;;;;;4.93;3.37;;;;;;;8.99;100.00;99886.69;7392654;19;20432;-57
2022/10/01 02:54:01;;;;;;;5.97;3.53;;;;;;;8.99;100.00;99894.41;7394022;19;20974;-54
2022/10/01 02:59:17;;;;;;;6.27;3.53;;;;;;;9.00;100.00;99888.44;7390874;19;20407;-53
2022/10/01 03:01:49;;;;;;;7.13;4.50;;;;;;;9.01;100.00;99889.28;7395117;19;20384;-55
2022/10/01 03:04:19;;;;;;;6.60;4.00;;;;;;;9.01;100.00;99886.72;7392160;19;20434;-60
2022/10/01 03:06:48;;;;;;;6.97;3.97;;;;;;;8.98;100.00;99882.34;7394685;19;20384;-61
2022/10/01 03:09:18;;;;;;;5.17;3.47;;;;;;;8.99;100.00;99880.66;7391324;19;20407;-61
2022/10/01 03:11:47;;;;;;;4.67;3.50;;;;;;;9.01;100.00;99874.72;7394868;19;20415;-55
2022/10/01 03:14:17;;;;;;;11.03;4.03;;;;;;;8.99;100.00;99875.50;7391418;19;20768;-58
2022/10/01 03:16:49;;;;;;;10.47;3.67;;;;;;;9.00;100.00;99869.53;7394783;19;20411;-56
2022/10/01 03:19:19;;;;;;;5.40;3.50;;;;;;;9.03;100.00;99862.78;7390934;19;20419;-59
2022/10/01 03:21:49;;;;;;;8.73;3.77;;;;;;;9.02;100.00;99861.03;7394102;19;20379;-51
2022/10/01 03:24:18;;;;;;;7.23;3.00;;;;;;;9.05;100.00;99863.72;7391594;19;20766;-55
2022/10/01 03:26:47;;;;;;;5.07;3.27;;;;;;;9.04;100.00;99859.38;7397441;19;20391;-53
2022/10/01 03:29:17;;;;;;;7.60;4.33;;;;;;;9.05;100.00;99850.88;7389663;19;20439;-49
2022/10/01 03:31:46;;;;;;;5.10;3.33;;;;;;;9.04;100.00;99854.25;7394320;19;20735;-55
2022/10/01 03:34:19;;;;;;;5.23;3.60;;;;;;;9.02;100.00;99855.91;7390565;19;20444;-47
2022/10/01 03:36:48;;;;;;;7.00;4.00;;;;;;;9.07;100.00;99842.31;7391785;19;20388;-57
2022/10/01 03:39:18;;;;;;;5.43;3.80;;;;;;;9.10;100.00;99847.56;7389940;19;20442;-55
2022/10/01 03:41:47;;;;;;;5.30;3.73;;;;;;;9.14;100.00;99852.00;7393799;19;20478;-58
2022/10/01 03:44:17;;;;;;;6.23;3.40;;;;;;;9.14;100.00;99860.56;7390926;19;20954;-49
2022/10/01 03:46:46;;;;;;;5.43;3.50;;;;;;;9.14;100.00;99849.41;7393734;19;20417;-58
2022/10/01 03:49:18;;;;;;;5.47;3.10;;;;;;;9.15;100.00;99846.00;7391471;19;20470;-51
2022/10/01 03:51:48;;;;;;;5.83;3.57;;;;;;;9.19;100.00;99847.88;7393641;19;20411;-59
2022/10/01 03:54:19;;;;;;;7.63;3.33;;;;;;;9.14;100.00;99845.13;7390276;19;21096;-58
2022/10/01 03:56:48;;;;;;;6.13;3.27;;;;;;;9.11;100.00;99850.19;7393514;19;20380;-54
2022/10/01 03:59:20;;;;;;;8.30;3.30;;;;;;;9.14;100.00;99844.28;7389170;19;20415;-58
2022/10/01 04:01:49;;;;;;;6.87;4.00;;;;;;;9.11;100.00;99834.75;7393373;19;20914;-61
2022/10/01 04:04:21;;;;;;;4.20;3.20;;;;;;;9.03;100.00;99831.91;7389983;19;20422;-57
2022/10/01 04:06:51;;;;;;;5.60;3.40;;;;;;;9.02;100.00;99824.13;7392969;19;20417;-55
2022/10/01 04:09:20;;;;;;;7.40;3.90;;;;;;;8.92;100.00;99815.22;7388637;19;20766;-54
2022/10/01 04:11:49;;;;;;;9.70;4.47;;;;;;;8.84;100.00;99796.09;7393086;19;20391;-52
2022/10/01 04:14:19;;;;;;;7.13;3.37;;;;;;;8.74;100.00;99782.94;7393161;19;20443;-59
2022/10/01 04:16:51;;;;;;;5.53;3.97;;;;;;;8.74;100.00;99767.53;7392823;19;20384;-59
2022/10/01 04:19:23;;;;;;;6.63;4.53;;;;;;;8.66;100.00;99748.38;7388714;19;20429;-54
2022/10/01 04:21:53;;;;;;;8.80;4.33;;;;;;;8.70;100.00;99729.66;7392328;19;20423;-57
2022/10/01 04:24:22;;;;;;;7.47;3.97;;;;;;;8.57;100.00;99722.38;7389232;19;20403;-57
2022/10/01 04:26:52;;;;;;;8.23;4.47;;;;;;;8.51;100.00;99713.63;7392573;19;20383;-57
2022/10/01 04:29:21;;;;;;;10.43;4.50;;;;;;;8.46;100.00;99693.69;7386094;19;20949;-52
2022/10/01 04:31:52;;;;;;;6.80;4.13;;;;;;;8.45;100.00;99687.66;7392429;19;20380;-53
2022/10/01 04:34:51;;;;;;;5.77;4.03;;;;;;;8.47;100.00;99669.72;7389010;19;20399;-53
2022/10/01 04:37:14;;;;;;;8.33;4.53;;;;;;;8.36;100.00;99661.69;7391997;19;20395;-59
2022/10/01 04:39:43;;;;;;;5.80;4.30;;;;;;;8.36;100.00;99649.69;7388592;19;20454;-55
2022/10/01 04:42:13;;;;;;;11.97;6.43;;;;;;;8.36;100.00;99635.97;7391991;19;20387;-58
2022/10/01 04:44:43;;;;;;;6.97;4.10;;;;;;;8.37;100.00;99622.28;7389429;19;20423;-55
2022/10/01 04:47:12;;;;;;;6.80;4.60;;;;;;;8.40;100.00;99606.09;7391649;19;20388;-60
2022/10/01 04:49:44;;;;;;;11.83;8.00;;;;;;;8.96;100.00;99588.13;7393822;19;20430;-56
2022/10/01 04:52:14;;;;;;;9.77;6.30;;;;;;;9.37;100.00;99568.66;7399289;19;20391;-58
2022/10/01 04:54:43;;;;;;;9.40;5.63;;;;;;;9.15;100.00;99557.78;7396404;19;20415;-60
2022/10/01 04:57:13;;;;;;;12.10;6.90;;;;;;;8.66;100.00;99547.78;7398818;19;20391;-57
2022/10/01 04:59:42;;;;;;;8.30;4.40;;;;;;;8.44;100.00;99539.41;7394784;19;20798;-58
2022/10/01 05:02:12;;;;;;;7.23;4.57;;;;;;;8.34;100.00;99539.94;7403576;19;20399;-56
2022/10/01 05:04:41;;;;;;;7.20;5.17;;;;;;;8.24;100.00;99531.94;7395582;19;20751;-55
2022/10/01 05:07:13;;;;;;;5.97;4.60;;;;;;;8.19;100.00;99527.47;7398621;19;20399;-58
2022/10/01 05:09:43;;;;;;;7.80;4.47;;;;;;;8.13;100.00;99522.13;7393222;19;20426;-53
2022/10/01 05:12:12;;;;;;;7.17;5.07;;;;;;;8.10;100.00;99515.19;7398513;19;20376;-60
2022/10/01 05:14:41;;;;;;;7.50;5.20;;;;;;;8.08;100.00;99510.03;7395464;19;20411;-54
2022/10/01 05:17:11;;;;;;;7.23;4.63;;;;;;;8.11;100.00;99497.28;7398240;19;20391;-55
2022/10/01 05:19:40;;;;;;;8.93;5.37;;;;;;;8.05;100.00;99491.94;7395601;19;20446;-55
2022/10/01 05:22:09;;;;;;;6.90;4.80;;;;;;;8.04;100.00;99485.06;7397894;19;20407;-57
2022/10/01 05:24:42;;;;;;;8.90;5.63;;;;;;;8.01;100.00;99476.38;7395562;19;20434;-59
2022/10/01 05:27:12;;;;;;;8.07;4.90;;;;;;;7.97;100.00;99475.44;7398106;19;20399;-58
2022/10/01 05:29:42;;;;;;;8.40;5.07;;;;;;;7.94;100.00;99454.75;7392685;19;20467;-58
2022/10/01 05:32:12;;;;;;;7.90;4.93;;;;;;;7.89;100.00;99459.75;7397774;19;20393;-60
2022/10/01 05:34:41;;;;;;;7.70;5.10;;;;;;;7.92;100.00;99459.88;7395186;19;20957;-59
2022/10/01 05:37:11;;;;;;;8.30;5.30;;;;;;;7.89;100.00;99444.34;7397607;19;20411;-59
2022/10/01 05:39:43;;;;;;;8.77;5.17;;;;;;;7.88;100.00;99445.19;7393798;19;20419;-55
2022/10/01 05:42:12;;;;;;;8.50;5.17;;;;;;;7.89;100.00;99434.09;7397645;19;20380;-58
2022/10/01 05:44:45;;;;;;;8.63;4.80;;;;;;;7.89;100.00;99420.38;7394749;19;20436;-57
2022/10/01 05:47:14;;;;;;;10.37;4.97;;;;;;;7.87;100.00;99402.34;7398649;19;20456;-56
2022/10/01 05:49:44;;;;;;;6.70;5.00;;;;;;;7.89;100.00;99372.44;7392098;19;20419;-56
2022/10/01 05:52:16;;;;;;;9.53;5.30;;;;;;;7.91;100.00;99354.53;7397764;19;20384;-59
2022/10/01 05:54:48;;;;;;;6.53;5.20;;;;;;;7.87;100.00;99333.00;7393954;19;20422;-59
2022/10/01 05:57:17;;;;;;;7.10;4.70;;;;;;;7.86;100.00;99302.16;7397031;19;20407;-60
2022/10/01 05:59:46;;;;;;;7.73;5.30;;;;;;;7.83;100.00;99254.13;7391333;19;20466;-59
2022/10/01 06:02:16;;;;;;;10.30;5.13;;;;;;;7.83;100.00;99223.31;7396972;19;20908;-59
2022/10/01 06:04:45;;;;;;;7.57;5.13;;;;;;;7.81;100.00;99214.72;7393972;19;20425;-59
2022/10/01 06:07:15;;;;;;;7.37;5.90;;;;;;;7.83;100.00;99198.53;7396529;19;20382;-55
2022/10/01 06:09:44;;;;;;;8.27;5.97;;;;;;;7.83;100.00;99167.72;7391820;19;20959;-52
2022/10/01 06:12:16;;;;;;;7.87;5.57;;;;;;;7.83;100.00;99157.44;7396527;19;20395;-51
2022/10/01 06:14:48;;;;;;;9.97;4.90;;;;;;;7.84;100.00;99137.75;7396038;19;20406;-55
2022/10/01 06:17:17;;;;;;;6.93;4.67;;;;;;;7.83;100.00;99100.06;7396100;19;20388;-58
2022/10/01 06:19:47;;;;;;;10.27;6.10;;;;;;;7.87;100.00;99032.56;7392260;19;20450;-56
2022/10/01 06:22:16;;;;;;;8.10;5.50;;;;;;;7.87;100.00;98994.03;7395777;19;20914;-58
2022/10/01 06:24:46;;;;;;;12.60;6.60;;;;;;;7.87;100.00;98994.03;7397692;19;20815;-55
2022/10/01 06:27:18;;;;;;;8.20;5.53;;;;;;;7.85;100.00;98988.00;7396023;19;20388;-52
2022/10/01 06:29:47;;;;;;;8.23;5.90;;;;;;;7.85;100.00;98975.19;7393471;19;20451;-53
2022/10/01 06:32:18;;;;;;;8.53;6.00;;;;;;;7.85;100.00;98980.31;7395908;19;20400;-54
2022/10/01 06:34:48;;;;;;;18.47;6.67;;;;;;;7.85;100.00;98975.19;7395451;19;20430;-56
2022/10/01 06:37:17;;;;;;;8.97;6.37;;;;;;;7.86;100.00;98982.03;7395637;19;20415;-56
2022/10/01 06:39:47;;;;;;;8.50;6.17;;;;;;;7.84;100.00;98983.69;7392132;19;20431;-51
2022/10/01 06:42:19;;;;;;;9.47;6.07;;;;;;;7.85;100.00;99501.59;7395586;19;20379;-57
2022/10/01 06:44:48;;;;;;;10.40;5.60;;;;;;;7.85;100.00;99606.88;7395127;19;20409;-57
2022/10/01 06:47:17;;;;;;;6.10;4.30;;;;;;;7.84;100.00;99779.75;7395297;19;20384;-55
2022/10/01 06:49:47;;;;;;;7.03;5.33;;;;;;;7.90;100.00;99758.56;7392480;19;20430;-50
2022/10/01 06:55:00;;;;;;;10.73;5.07;;;;;;;7.90;100.00;99995.72;7394444;19;20438;-55
2022/10/01 06:57:33;;;;;;;7.63;4.73;;;;;;;7.89;100.00;99998.25;7391606;19;20402;-58
2022/10/01 07:00:03;;;;;;;11.57;6.30;;;;;;;7.88;100.00;100007.66;7393490;19;20406;-55
2022/10/01 07:02:32;;;;;;;8.33;5.27;;;;;;;7.88;100.00;99994.81;7391942;19;20388;-58
2022/10/01 07:05:01;;;;;;;5.87;4.33;;;;;;;7.86;100.00;99981.03;7394499;19;20379;-54
2022/10/01 07:07:31;;;;;;;11.10;6.47;;;;;;;7.89;100.00;99978.56;7392158;19;20379;-57
2022/10/01 07:10:01;;;;;;;8.87;6.37;;;;;;;7.90;100.00;99975.19;7392875;19;20446;-57
2022/10/01 07:12:33;;;;;;;8.70;6.10;;;;;;;7.89;100.00;99976.00;7391875;19;20388;-54
2022/10/01 07:15:02;;;;;;;8.63;5.60;;;;;;;7.91;100.00;99981.22;7394316;19;20942;-54
2022/10/01 07:17:31;;;;;;;10.17;6.17;;;;;;;7.90;100.00;99977.75;7391201;19;20388;-53
2022/10/01 07:20:01;;;;;;;9.07;5.67;;;;;;;7.90;100.00;99985.47;7395737;19;20429;-56
2022/10/01 07:22:30;;;;;;;7.73;5.63;;;;;;;7.91;100.00;99999.19;7391551;19;20388;-55
2022/10/01 07:25:00;;;;;;;7.77;5.60;;;;;;;7.90;100.00;100011.16;7393786;19;20382;-60
2022/10/01 07:27:29;;;;;;;8.53;5.67;;;;;;;7.90;100.00;99992.31;7391409;19;21135;-58
2022/10/01 07:30:01;;;;;;;8.80;6.10;;;;;;;7.94;100.00;99989.03;7392325;19;20772;-56
2022/10/01 07:32:31;;;;;;;9.57;6.27;;;;;;;7.93;100.00;99975.31;7390796;19;20411;-58
2022/10/01 07:35:00;;;;;;;12.30;6.50;;;;;;;7.95;100.00;99960.84;7393603;19;20392;-58
2022/10/01 07:37:30;;;;;;;8.30;6.43;;;;;;;7.95;100.00;99948.00;7391357;19;20400;-61
2022/10/01 07:39:59;;;;;;;8.40;5.90;;;;;;;7.97;100.00;99940.34;7394570;19;20427;-55
2022/10/01 07:42:36;;;;;;;11.23;6.40;;;;;;;7.96;100.00;99939.47;7391343;19;20422;-59
2022/10/01 07:45:09;;;;;;;9.37;6.53;;;;;;;7.97;100.00;99951.53;7393382;19;20762;-58
2022/10/01 07:47:40;;;;;;;10.30;6.30;;;;;;;8.01;100.00;99941.34;7390764;19;20403;-57
2022/10/01 07:50:10;;;;;;;7.17;5.70;;;;;;;8.02;100.00;99944.00;7392080;19;20427;-55
2022/10/01 07:52:39;;;;;;;10.53;6.30;;;;;;;8.03;100.00;99929.44;7390759;19;20388;-63
2022/10/01 07:55:13;;;;;;;6.17;4.90;;;;;;;8.06;100.00;99919.28;7393305;19;20382;-59
2022/10/01 07:57:42;;;;;;;7.90;5.60;;;;;;;8.07;100.00;99916.78;7390441;19;20427;-57
2022/10/01 08:00:15;;;;;;;7.07;5.40;;;;;;;8.05;100.00;99913.25;7391723;19;20788;-58
2022/10/01 08:02:48;;;;;;;7.37;5.93;;;;;;;8.09;100.00;99903.97;7390096;19;20399;-59
2022/10/01 08:05:20;;;;;;;6.97;5.43;;;;;;;8.11;100.00;99898.09;7393196;19;20436;-57
2022/10/01 08:07:50;;;;;;;7.83;5.87;;;;;;;8.14;100.00;99881.91;7391128;19;20394;-55
2022/10/01 08:10:22;;;;;;;7.07;5.73;;;;;;;8.15;100.00;99868.22;7394389;19;20427;-57
2022/10/01 08:12:51;;;;;;;9.43;6.37;;;;;;;8.17;100.00;99865.72;7389976;19;20390;-55
2022/10/01 08:15:23;;;;;;;11.10;5.63;;;;;;;8.17;100.00;99861.47;7392850;19;20396;-57
2022/10/01 08:17:53;;;;;;;10.10;6.67;;;;;;;8.20;100.00;99861.59;7389563;19;20418;-59
2022/10/01 08:20:22;;;;;;;7.33;5.37;;;;;;;8.21;100.00;99854.75;7391932;19;20443;-57
2022/10/01 08:22:52;;;;;;;8.27;5.70;;;;;;;8.22;100.00;99859.06;7392465;19;20407;-58
2022/10/01 08:25:21;;;;;;;8.50;5.30;;;;;;;8.23;100.00;99851.44;7399647;19;20391;-58
2022/10/01 08:27:50;;;;;;;7.53;5.10;;;;;;;8.30;100.00;99831.09;7395716;19;20410;-56
2022/10/01 08:30:20;;;;;;;6.90;5.40;;;;;;;8.32;100.00;99821.72;7397680;19;20426;-54
2022/10/01 08:32:55;;;;;;;8.50;5.50;;;;;;;8.32;100.00;99824.31;7395377;19;20420;-59
2022/10/01 08:35:25;;;;;;;10.60;5.73;;;;;;;8.36;100.00;99823.59;7399563;19;20414;-56
2022/10/01 08:37:56;;;;;;;8.70;5.20;;;;;;;8.35;100.00;99835.56;7395210;19;20431;-52
2022/10/01 08:40:25;;;;;;;7.17;4.60;;;;;;;8.38;100.00;99832.25;7401496;19;20431;-56
2022/10/01 08:42:58;;;;;;;4.80;4.33;;;;;;;8.40;100.00;99825.44;7396513;19;20433;-58
2022/10/01 08:45:30;;;;;;;6.83;5.03;;;;;;;8.46;100.00;99812.81;7399146;19;20749;-56
2022/10/01 08:48:09;;;;;;;7.10;4.97;;;;;;;8.50;100.00;99806.97;7396300;19;20440;-59
2022/10/01 08:50:43;;;;;;;4.90;3.60;;;;;;;8.48;100.00;99800.91;7396673;19;20955;-58
2022/10/01 08:53:18;;;;;;;6.20;4.73;;;;;;;8.52;100.00;99799.34;7394052;19;20403;-56
2022/10/01 08:55:48;;;;;;;5.47;3.63;;;;;;;8.54;100.00;99794.22;7394578;19;20391;-60
2022/10/01 08:58:34;;;;;;;13.90;4.20;;;;;;;8.56;100.00;99795.19;7398595;19;20388;-58
2022/10/01 09:01:04;;;;;;;3.87;2.63;;;;;;;8.55;100.00;99801.16;7396427;19;20960;-60
2022/10/01 09:03:36;;;;;;;5.10;3.43;;;;;;;8.60;100.00;99774.75;7391303;19;20415;-60
2022/10/01 09:06:17;;;;;;;5.40;2.80;;;;;;;8.64;100.00;99778.31;7398434;19;20386;-57
2022/10/01 09:08:57;;;;;;;3.80;3.27;;;;;;;8.69;100.00;99778.47;7392108;19;20431;-56
2022/10/01 09:11:38;;;;;;;4.23;3.17;;;;;;;8.70;100.00;99775.94;7395388;19;20423;-53
2022/10/01 09:14:15;;;;;;;3.80;3.30;;;;;;;8.73;100.00;99770.88;7394149;19;20435;-54
2022/10/01 09:16:49;;;;;;;3.37;3.07;;;;;;;8.74;100.00;99758.91;7398454;19;20408;-48
2022/10/01 09:19:34;;;;;;;4.10;3.50;;;;;;;8.77;100.00;99761.59;7390915;19;20406;-54
2022/10/01 09:22:09;;;;;;;4.57;2.60;;;;;;;8.78;100.00;99761.63;7391492;19;20419;-55
2022/10/01 09:24:45;;;;;;;3.67;2.80;;;;;;;8.83;100.00;99750.63;7398146;19;20387;-60
2022/10/01 09:27:17;;;;;;;5.33;3.67;;;;;;;8.88;100.00;99749.09;7393958;19;20383;-56
2022/10/01 09:29:50;;;;;;;5.27;3.50;;;;;;;8.89;100.00;99745.69;7396841;19;20497;-56
2022/10/01 09:32:23;;;;;;;3.40;3.07;;;;;;;8.91;100.00;99728.59;7392335;19;20395;-56
2022/10/01 09:35:05;;;;;;;3.47;3.00;;;;;;;8.94;100.00;99718.41;7394058;19;20416;-59
2022/10/01 09:37:43;;;;;;;3.87;3.30;;;;;;;8.96;100.00;99721.91;7388751;19;20415;-58
2022/10/01 09:40:18;;;;;;;5.20;4.20;;;;;;;9.00;100.00;99713.47;7396937;19;20777;-53
2022/10/01 09:42:49;;;;;;;4.80;3.77;;;;;;;9.04;100.00;99709.28;7391299;19;20426;-60
2022/10/01 09:45:19;;;;;;;7.67;5.93;;;;;;;9.14;100.00;99695.00;7395493;19;20411;-56
2022/10/01 09:47:52;;;;;;;8.23;5.07;;;;;;;9.17;100.00;99689.94;7389209;19;20422;-59
2022/10/01 09:50:32;;;;;;;6.50;5.63;;;;;;;9.23;100.00;99684.13;7394195;19;20423;-57
2022/10/01 09:53:02;;;;;;;7.67;6.50;;;;;;;9.27;100.00;99685.94;7389451;19;21404;-58
2022/10/01 09:55:35;;;;;;;8.17;6.57;;;;;;;9.32;100.00;99690.41;7395646;19;20379;-61
2022/10/01 09:58:08;;;;;;;7.93;6.50;;;;;;;9.37;100.00;99690.53;7382625;19;20419;-56
2022/10/01 10:00:39;;;;;;;26.20;15.00;;;;;;;9.47;100.00;99683.97;7391096;19;20431;-58
2022/10/01 10:03:09;;;;;;;14.70;8.90;;;;;;;9.51;100.00;99664.31;7389503;19;20447;-57
2022/10/01 10:05:48;;;;;;;11.43;8.50;;;;;;;9.61;100.00;99658.63;7398379;19;20414;-59
2022/10/01 10:08:24;;;;;;;19.40;11.93;;;;;;;9.70;100.00;99639.97;7390011;19;20527;-59
2022/10/01 10:10:59;;;;;;;11.30;8.50;;;;;;;9.76;100.00;99613.50;7394978;19;20427;-56
2022/10/01 10:13:34;;;;;;;25.40;14.60;;;;;;;9.83;100.00;99607.66;7392706;19;20759;-60
2022/10/01 10:16:11;;;;;;;16.33;9.37;;;;;;;9.93;100.00;99591.63;7387697;19;20821;-52
2022/10/01 10:18:41;;;;;;;44.23;24.50;;;;;;;10.05;100.00;99570.44;7395922;19;20379;-57
2022/10/01 10:21:18;;;;;;;23.43;14.53;;;;;;;10.10;100.00;99571.44;7394873;19;20420;-58
2022/10/01 10:23:49;;;;;;;11.10;8.70;;;;;;;10.18;100.00;99555.28;7394698;19;20408;-60
2022/10/01 10:26:24;;;;;;;12.20;9.63;;;;;;;10.22;100.00;99545.09;7400241;19;20437;-55
2022/10/01 10:28:55;;;;;;;13.93;9.30;;;;;;;10.29;100.00;99516.88;7394592;19;20383;-60
2022/10/01 10:31:27;;;;;;;15.57;9.87;;;;;;;10.33;100.00;99493.78;7392169;19;20427;-58
2022/10/01 10:33:59;;;;;;;20.13;12.20;;;;;;;10.40;100.00;99481.88;7395449;19;20380;-53
2022/10/01 10:36:34;;;;;;;16.57;10.43;;;;;;;10.50;100.00;99464.94;7398429;19;20396;-58
2022/10/01 10:39:07;;;;;;;121.07;39.67;;;;;;;10.64;100.00;99447.19;7395239;19;20375;-57
2022/10/01 10:41:36;;;;;;;61.33;25.20;;;;;;;10.71;100.00;99407.75;7392176;19;20585;-57
2022/10/01 10:44:08;;;;;;;29.73;15.33;;;;;;;10.75;100.00;99376.03;7394857;19;20387;-56
2022/10/01 10:46:39;;;;;;;34.13;17.63;;;;;;;10.86;100.00;99360.75;7393483;19;20805;-57
2022/10/01 10:49:20;;;;;;;27.87;13.47;;;;;;;11.02;100.00;99309.44;7392748;19;20724;-58
2022/10/01 10:51:54;;;;;;;14.07;9.90;;;;;;;11.36;100.00;99346.09;7397445;19;20407;-55
2022/10/01 10:54:26;;;;;;;25.30;13.93;;;;;;;11.48;100.00;99292.06;7394223;19;20384;-55
2022/10/01 10:56:59;;;;;;;10.33;9.07;;;;;;;11.75;100.00;99261.44;7395225;19;20392;-55
2022/10/01 10:59:29;;;;;;;37.93;19.67;;;;;;;11.75;100.00;99230.44;7392758;19;21237;-59
2022/10/01 11:01:59;;;;;;;34.77;18.87;;;;;;;11.74;100.00;99208.88;7394525;19;20392;-60
2022/10/01 11:04:34;;;;;;;18.73;10.20;;;;;;;11.83;100.00;99199.50;7394062;19;20411;-59
2022/10/01 11:07:06;;;;;;;58.17;25.47;;;;;;;12.02;100.00;99173.00;7393859;19;20416;-56
2022/10/01 11:09:49;;;;;;;48.70;21.50;;;;;;;12.12;100.00;99194.72;7395148;19;20400;-57
2022/10/01 11:12:29;;;;;;;16.70;8.50;;;;;;;12.20;100.00;99175.81;7392390;19;20388;-55
2022/10/01 11:15:09;;;;;;;26.93;13.17;;;;;;;12.35;100.00;99154.41;7394007;19;20387;-55
2022/10/01 11:18:08;;;;;;;25.00;10.80;;;;;;;12.54;100.00;99150.25;7393598;19;20385;-56
2022/10/01 11:20:46;;;;;;;22.67;10.80;;;;;;;12.69;100.00;99149.50;7391255;19;20444;-57
2022/10/01 11:23:36;;;;;;;12.10;7.00;;;;;;;12.73;100.00;99159.03;7393692;19;20412;-54
2022/10/01 11:26:18;;;;;;;10.47;4.93;;;;;;;12.75;100.00;99153.84;7393421;19;20417;-55
2022/10/01 11:28:57;;;;;;;12.23;5.97;;;;;;;12.95;100.00;99151.41;7395217;19;20422;-58
2022/10/01 11:31:33;;;;;;;15.40;9.90;;;;;;;13.23;100.00;99131.69;7390539;19;20425;-61
2022/10/01 11:34:16;;;;;;;6.13;3.90;;;;;;;13.35;100.00;99112.75;7394278;19;20398;-53
2022/10/01 11:36:55;;;;;;;12.67;6.97;;;;;;;13.41;100.00;99095.50;7391878;19;20948;-56
2022/10/01 11:39:29;;;;;;;15.70;9.50;;;;;;;13.33;100.00;99095.50;7393092;19;20378;-55
2022/10/01 11:42:02;;;;;;;17.63;7.73;;;;;;;13.28;100.00;99072.16;7393789;19;20384;-59
2022/10/01 11:44:36;;;;;;;23.30;11.63;;;;;;;13.55;100.00;99059.31;7393347;19;20745;-61
2022/10/01 11:47:10;;;;;;;18.50;7.87;;;;;;;13.63;100.00;99011.84;7394638;19;20388;-59
2022/10/01 11:49:52;;;;;;;24.50;8.20;;;;;;;13.64;100.00;98932.34;7393549;19;20386;-59
2022/10/01 11:52:35;;;;;;;10.43;4.97;;;;;;;13.60;100.00;98900.41;7392849;19;20729;-55
2022/10/01 12:00:42;;;;;;;28.57;9.60;;;;;;;13.61;100.00;98868.47;7390366;19;20419;-59
2022/10/01 12:03:16;;;;;;;15.80;5.30;;;;;;;13.49;100.00;98873.66;7392994;19;20381;-54
2022/10/01 12:05:46;;;;;;;15.83;5.30;;;;;;;13.39;100.00;98884.84;7393221;19;20411;-58